Time;durP1;ratioP1;P1;durP2;ratioP2;P2;SDS_P1;SDS_P2;PMS_P1;PMS_P2;Temp;Humidity;BMP_temperature;BMP_pressure;BME280_temperature;BME280_humidity;BME280_pressure;Samples;Min_cycle;Max_cycle;Signal;HPM_P1;HPM_P2
2023/10/11 00:03:04;;;;;;;3.37;2.93;;;22.80;58.60;;;;;;5033880;28;20418;-67
2023/10/11 00:05:39;;;;;;;4.30;3.03;;;22.80;58.60;;;;;;5033278;28;20441;-67
2023/10/11 00:08:08;;;;;;;5.10;3.20;;;22.80;58.60;;;;;;5033282;28;20386;-66
2023/10/11 00:10:42;;;;;;;3.50;3.00;;;22.80;58.60;;;;;;4997759;28;20424;-66
2023/10/11 00:13:10;;;;;;;6.77;3.17;;;22.70;58.50;;;;;;5013305;28;20396;-67
2023/10/11 00:15:36;;;;;;;4.87;3.23;;;22.80;58.60;;;;;;5013234;28;20961;-66
2023/10/11 00:18:02;;;;;;;3.33;2.70;;;22.80;58.60;;;;;;5013258;28;20912;-67
2023/10/11 00:23:05;;;;;;;3.70;2.83;;;22.80;58.60;;;;;;5013262;28;20482;-66
2023/10/11 00:25:31;;;;;;;4.23;2.87;;;22.80;58.60;;;;;;5013119;28;20848;-66
2023/10/11 00:27:58;;;;;;;4.93;3.13;;;22.80;58.50;;;;;;5013004;28;20645;-67
2023/10/11 00:30:24;;;;;;;3.30;3.00;;;22.80;58.50;;;;;;5013314;28;20191;-66
2023/10/11 00:32:52;;;;;;;4.17;3.10;;;22.80;58.60;;;;;;5012968;28;20446;-67
2023/10/11 00:35:18;;;;;;;4.43;3.60;;;22.80;58.50;;;;;;5012958;28;20846;-66
2023/10/11 00:37:52;;;;;;;3.50;2.93;;;22.80;58.50;;;;;;5011946;28;20962;-66
2023/10/11 00:40:33;;;;;;;4.37;3.60;;;22.80;58.50;;;;;;5012434;28;20450;-67
2023/10/11 00:42:59;;;;;;;3.87;3.47;;;22.80;58.50;;;;;;5012838;28;20398;-65
2023/10/11 00:45:30;;;;;;;4.40;3.30;;;22.80;58.50;;;;;;5012623;28;20870;-67
2023/10/11 00:47:59;;;;;;;4.90;4.07;;;22.80;58.50;;;;;;5012683;28;20152;-66
2023/10/11 00:50:26;;;;;;;4.07;2.97;;;22.80;58.50;;;;;;5012868;28;20532;-65
2023/10/11 00:52:55;;;;;;;6.27;3.60;;;22.80;58.50;;;;;;5012633;28;20419;-66
2023/10/11 00:55:24;;;;;;;4.90;3.60;;;22.80;58.50;;;;;;5012581;28;20427;-68
2023/10/11 00:57:53;;;;;;;3.53;3.10;;;22.80;58.50;;;;;;5012593;28;21014;-67
2023/10/11 01:00:21;;;;;;;5.60;3.20;;;22.80;58.50;;;;;;5012477;28;20533;-66
2023/10/11 01:02:48;;;;;;;4.70;3.67;;;22.80;58.50;;;;;;5012645;28;20420;-67
2023/10/11 01:05:14;;;;;;;6.40;3.50;;;22.80;58.50;;;;;;5012287;28;20450;-67
2023/10/11 01:07:40;;;;;;;6.37;3.93;;;22.80;58.50;;;;;;5012311;28;20407;-67
2023/10/11 01:10:07;;;;;;;4.30;3.20;;;22.80;58.50;;;;;;5012163;28;20489;-68
2023/10/11 01:12:34;;;;;;;3.77;3.37;;;22.80;58.50;;;;;;5012344;28;20169;-66
2023/10/11 01:15:00;;;;;;;4.10;2.97;;;22.80;58.50;;;;;;5012371;28;20431;-65
2023/10/11 01:17:26;;;;;;;4.67;3.30;;;22.80;58.50;;;;;;5012271;28;20419;-67
2023/10/11 01:19:53;;;;;;;4.20;3.00;;;22.80;58.50;;;;;;5012071;28;20451;-67
2023/10/11 01:22:19;;;;;;;5.20;3.20;;;22.80;58.50;;;;;;5012483;28;20415;-66
2023/10/11 01:24:47;;;;;;;4.67;2.87;;;22.80;58.50;;;;;;5011981;28;20415;-67
2023/10/11 01:27:14;;;;;;;3.50;3.07;;;22.80;58.50;;;;;;5012063;28;20467;-67
2023/10/11 01:29:40;;;;;;;6.80;3.77;;;22.80;58.50;;;;;;5012400;28;20423;-67
2023/10/11 01:32:06;;;;;;;5.20;3.30;;;22.80;58.50;;;;;;5012224;28;20422;-67
2023/10/11 01:34:32;;;;;;;3.97;3.00;;;22.80;58.50;;;;;;5011670;28;20948;-66
2023/10/11 01:37:00;;;;;;;4.67;3.23;;;22.80;58.50;;;;;;5012214;28;20266;-65
2023/10/11 01:39:25;;;;;;;4.17;3.37;;;22.80;58.50;;;;;;5011803;28;20837;-67
2023/10/11 01:41:58;;;;;;;5.37;3.27;;;22.80;58.50;;;;;;5012020;28;20419;-64
2023/10/11 01:44:26;;;;;;;3.73;3.33;;;22.80;58.50;;;;;;5011682;28;20550;-67
2023/10/11 01:46:52;;;;;;;4.60;3.60;;;22.80;58.50;;;;;;5011651;28;20419;-67
2023/10/11 01:49:18;;;;;;;5.10;3.77;;;22.80;58.50;;;;;;5011488;28;20430;-68
2023/10/11 01:51:46;;;;;;;5.70;3.63;;;22.80;58.50;;;;;;5011701;28;20176;-67
2023/10/11 01:54:15;;;;;;;5.20;4.00;;;22.80;58.50;;;;;;5011605;28;20204;-68
2023/10/11 01:56:41;;;;;;;4.10;3.37;;;22.80;58.50;;;;;;5011505;28;20415;-67
2023/10/11 01:59:07;;;;;;;4.73;3.20;;;22.80;58.50;;;;;;5011802;28;20810;-66
2023/10/11 02:01:39;;;;;;;5.10;3.60;;;22.80;58.50;;;;;;5011829;28;20438;-66
2023/10/11 02:04:29;;;;;;;7.60;3.90;;;22.80;58.50;;;;;;5011104;28;20462;-68
2023/10/11 02:06:51;;;;;;;5.13;3.13;;;22.80;58.50;;;;;;5010604;28;20477;-67
2023/10/11 02:09:20;;;;;;;4.17;3.40;;;22.80;58.50;;;;;;5011261;28;20415;-67
2023/10/11 02:11:51;;;;;;;4.30;3.90;;;22.80;58.50;;;;;;5011824;28;20187;-67
2023/10/11 02:14:18;;;;;;;4.63;3.30;;;22.70;58.40;;;;;;5011738;28;20449;-67
2023/10/11 02:16:44;;;;;;;4.20;3.77;;;22.80;58.50;;;;;;5011603;28;20498;-66
2023/10/11 02:19:09;;;;;;;3.73;3.13;;;22.80;58.50;;;;;;5011694;28;20550;-66
2023/10/11 02:21:43;;;;;;;5.40;3.13;;;22.70;58.40;;;;;;5011454;28;20163;-66
2023/10/11 02:24:10;;;;;;;5.13;3.40;;;22.80;58.50;;;;;;5011503;28;20952;-67
2023/10/11 02:26:35;;;;;;;4.50;3.67;;;22.80;58.50;;;;;;5011433;28;20948;-66
2023/10/11 02:29:06;;;;;;;4.20;3.60;;;22.80;58.40;;;;;;5011434;28;20454;-65
2023/10/11 02:31:33;;;;;;;3.87;2.90;;;22.80;58.40;;;;;;5011466;28;20160;-65
2023/10/11 02:34:20;;;;;;;4.77;3.53;;;22.80;58.40;;;;;;5011364;28;20491;-66
2023/10/11 02:36:56;;;;;;;5.20;4.67;;;22.80;58.40;;;;;;5010882;28;20446;-67
2023/10/11 02:39:28;;;;;;;6.13;3.60;;;22.80;58.50;;;;;;5011274;28;20454;-66
2023/10/11 02:41:57;;;;;;;4.10;3.33;;;22.80;58.50;;;;;;5011415;28;20803;-68
2023/10/11 02:44:23;;;;;;;5.40;3.33;;;22.80;58.40;;;;;;5011024;28;20431;-67
2023/10/11 02:46:49;;;;;;;3.60;3.23;;;22.80;58.50;;;;;;5011308;28;20422;-66
2023/10/11 02:49:21;;;;;;;4.80;3.60;;;22.80;58.40;;;;;;4993433;28;20427;-67
2023/10/11 02:51:59;;;;;;;4.43;3.40;;;22.80;58.40;;;;;;5011198;28;20465;-67
2023/10/11 02:54:38;;;;;;;5.37;3.60;;;22.80;58.40;;;;;;5010983;28;20435;-65
2023/10/11 02:57:20;;;;;;;5.10;3.60;;;22.80;58.50;;;;;;5011238;28;20396;-67
2023/10/11 02:59:50;;;;;;;6.70;3.80;;;22.70;58.40;;;;;;5010973;28;20797;-65
2023/10/11 03:02:16;;;;;;;4.37;3.00;;;22.80;58.50;;;;;;5014250;28;20781;-66
2023/10/11 03:04:42;;;;;;;6.80;3.13;;;22.80;58.50;;;;;;5014670;28;20435;-66
2023/10/11 03:07:13;;;;;;;4.50;3.73;;;22.80;58.40;;;;;;5014421;28;20169;-67
2023/10/11 03:09:40;;;;;;;4.27;3.30;;;22.80;58.40;;;;;;5014787;28;20399;-67
2023/10/11 03:12:19;;;;;;;4.07;3.03;;;22.80;58.40;;;;;;5014632;28;20403;-66
2023/10/11 03:14:46;;;;;;;4.10;3.60;;;22.80;58.40;;;;;;5014283;28;20423;-67
2023/10/11 03:17:16;;;;;;;4.33;3.37;;;22.80;58.40;;;;;;5014577;28;20418;-67
2023/10/11 03:19:43;;;;;;;4.43;3.00;;;22.80;58.40;;;;;;5014350;28;20451;-66
2023/10/11 03:22:09;;;;;;;5.47;4.00;;;22.80;58.40;;;;;;5014159;28;20442;-67
2023/10/11 03:24:40;;;;;;;4.20;2.93;;;22.80;58.40;;;;;;4996626;28;20440;-66
2023/10/11 03:27:10;;;;;;;3.30;3.00;;;22.80;58.40;;;;;;5014298;28;20403;-67
2023/10/11 03:29:35;;;;;;;4.40;3.20;;;22.80;58.40;;;;;;5014079;28;20465;-66
2023/10/11 03:32:03;;;;;;;4.10;3.13;;;22.80;58.40;;;;;;5014142;28;20830;-66
2023/10/11 03:34:29;;;;;;;4.50;3.60;;;22.80;58.40;;;;;;5013865;28;20204;-67
2023/10/11 03:36:59;;;;;;;3.60;3.10;;;22.80;58.40;;;;;;4996485;28;20427;-66
2023/10/11 03:39:28;;;;;;;5.43;3.50;;;22.80;58.40;;;;;;5013913;28;20203;-65
2023/10/11 03:42:07;;;;;;;4.07;3.20;;;22.80;58.40;;;;;;5014024;28;20928;-67
2023/10/11 03:44:36;;;;;;;5.03;3.33;;;22.80;58.40;;;;;;5013832;28;20426;-66
2023/10/11 03:47:07;;;;;;;4.20;3.60;;;22.80;58.40;;;;;;5013725;28;20447;-67
2023/10/11 03:52:30;;;;;;;3.60;2.80;;;22.80;58.40;;;;;;5013693;28;20911;-67
2023/10/11 03:55:09;;;;;;;4.63;3.17;;;22.80;58.40;;;;;;5013673;28;20431;-65
2023/10/11 03:57:41;;;;;;;5.17;3.70;;;22.80;58.40;;;;;;5013514;28;20396;-66
2023/10/11 04:03:02;;;;;;;6.27;4.07;;;22.80;58.40;;;;;;5013642;28;20490;-65
2023/10/11 04:05:33;;;;;;;4.00;3.50;;;22.70;58.30;;;;;;5013363;28;20403;-66
2023/10/11 04:08:04;;;;;;;5.30;3.50;;;22.70;58.40;;;;;;5013655;28;20400;-66
2023/10/11 04:10:38;;;;;;;4.27;3.57;;;22.80;58.40;;;;;;5013420;28;20946;-67
2023/10/11 04:13:09;;;;;;;4.73;3.60;;;22.80;58.40;;;;;;5013075;28;20396;-65
2023/10/11 04:15:35;;;;;;;3.83;3.40;;;22.80;58.40;;;;;;5013311;28;20396;-66
2023/10/11 04:18:14;;;;;;;4.30;3.37;;;22.70;58.30;;;;;;5013298;28;20407;-65
2023/10/11 04:20:40;;;;;;;3.73;3.13;;;22.70;58.30;;;;;;5013252;28;21182;-66
2023/10/11 04:23:14;;;;;;;5.40;3.90;;;22.80;58.40;;;;;;5013001;28;20416;-67
2023/10/11 04:25:43;;;;;;;5.40;4.03;;;22.80;58.40;;;;;;5012984;28;20467;-65
2023/10/11 04:28:12;;;;;;;5.30;4.13;;;22.70;58.30;;;;;;5013026;28;20411;-66
2023/10/11 04:30:41;;;;;;;4.90;3.80;;;22.80;58.40;;;;;;5013018;28;20912;-66
2023/10/11 04:33:11;;;;;;;3.93;3.47;;;22.70;58.40;;;;;;5012666;28;20415;-66
2023/10/11 04:35:36;;;;;;;5.00;3.60;;;22.80;58.40;;;;;;5012548;28;20435;-66
2023/10/11 04:38:03;;;;;;;4.93;3.20;;;22.80;58.40;;;;;;5012730;28;20430;-66
2023/10/11 04:40:38;;;;;;;5.03;3.80;;;22.80;58.40;;;;;;5012677;28;20200;-66
2023/10/11 04:43:07;;;;;;;3.80;3.37;;;22.80;58.40;;;;;;5012572;28;20931;-65
2023/10/11 04:45:44;;;;;;;3.90;3.30;;;22.80;58.40;;;;;;5012751;28;20407;-66
2023/10/11 04:48:19;;;;;;;5.03;4.03;;;22.70;58.40;;;;;;5012552;28;20459;-66
2023/10/11 04:50:51;;;;;;;4.93;3.53;;;22.80;58.40;;;;;;5012768;28;20876;-65
2023/10/11 04:53:18;;;;;;;3.70;3.30;;;22.80;58.40;;;;;;5011735;28;20521;-67
2023/10/11 04:56:01;;;;;;;5.60;3.50;;;22.70;58.30;;;;;;5012507;28;20931;-66
2023/10/11 05:01:20;;;;;;;5.07;3.50;;;22.70;58.30;;;;;;4997567;28;20515;-65
2023/10/11 05:03:46;;;;;;;5.60;3.90;;;22.70;58.30;;;;;;5012265;28;20435;-67
2023/10/11 05:06:19;;;;;;;4.73;3.60;;;22.80;58.40;;;;;;5012374;28;20422;-67
2023/10/11 05:08:51;;;;;;;5.93;3.97;;;22.70;58.30;;;;;;5012913;28;20387;-67
2023/10/11 05:11:39;;;;;;;6.23;3.77;;;22.80;58.40;;;;;;5014478;28;20395;-65
2023/10/11 05:14:10;;;;;;;5.90;4.00;;;22.70;58.30;;;;;;5014014;28;20431;-65
2023/10/11 05:16:38;;;;;;;4.37;3.47;;;22.70;58.30;;;;;;5014540;28;20406;-65
2023/10/11 05:19:06;;;;;;;5.23;3.53;;;22.80;58.40;;;;;;5014140;28;20455;-66
2023/10/11 05:21:38;;;;;;;4.40;3.87;;;22.70;58.40;;;;;;5014455;28;20427;-64
2023/10/11 05:24:27;;;;;;;4.17;3.50;;;22.80;58.40;;;;;;5013570;28;20522;-66
2023/10/11 05:27:04;;;;;;;4.93;3.50;;;22.80;58.40;;;;;;5014506;28;20499;-66
2023/10/11 05:29:36;;;;;;;7.93;4.60;;;22.70;58.30;;;;;;5013950;28;20888;-65
2023/10/11 05:32:20;;;;;;;5.20;3.70;;;22.70;58.30;;;;;;5014033;28;20402;-66
2023/10/11 05:34:50;;;;;;;7.40;4.33;;;22.80;58.40;;;;;;5013837;28;20435;-67
2023/10/11 05:51:07;;;;;;;4.80;3.77;;;22.70;58.40;;;;;;5013775;28;20383;-65
2023/10/11 05:53:35;;;;;;;5.87;4.00;;;22.80;58.40;;;;;;5012632;28;20431;-65
2023/10/11 05:56:00;;;;;;;5.83;3.70;;;22.70;58.30;;;;;;5013836;28;20450;-67
2023/10/11 05:58:26;;;;;;;5.07;4.20;;;22.70;58.30;;;;;;5013511;28;20447;-65
2023/10/11 06:00:53;;;;;;;5.80;3.97;;;22.70;58.30;;;;;;4996279;28;20200;-66
2023/10/11 06:03:19;;;;;;;6.03;3.77;;;22.80;58.40;;;;;;5012390;28;20412;-66
2023/10/11 06:05:44;;;;;;;5.47;3.17;;;22.80;58.30;;;;;;5011355;28;20482;-66
2023/10/11 06:08:16;;;;;;;4.37;3.93;;;22.80;58.30;;;;;;5013423;28;20173;-66
2023/10/11 06:10:41;;;;;;;4.60;3.90;;;22.80;58.30;;;;;;5013628;28;20160;-64
2023/10/11 06:13:16;;;;;;;5.10;3.97;;;22.80;58.30;;;;;;5013357;28;20434;-66
2023/10/11 06:15:58;;;;;;;6.70;4.17;;;22.80;58.30;;;;;;5013329;28;20164;-66
2023/10/11 06:18:55;;;;;;;5.00;3.87;;;22.80;58.40;;;;;;5013042;28;20884;-66
2023/10/11 06:21:30;;;;;;;4.00;3.33;;;22.80;58.30;;;;;;5013334;28;20396;-67
2023/10/11 06:24:06;;;;;;;5.57;3.77;;;22.80;58.30;;;;;;5012983;28;20527;-66
2023/10/11 06:29:04;;;;;;;4.77;3.70;;;22.70;58.30;;;;;;5013569;28;20396;-65
2023/10/11 06:31:34;;;;;;;4.93;3.53;;;22.80;58.30;;;;;;5012914;28;20407;-66
2023/10/11 06:34:15;;;;;;;5.03;4.10;;;22.80;58.30;;;;;;5013548;28;20466;-66
2023/10/11 06:36:42;;;;;;;6.03;3.63;;;22.80;58.30;;;;;;4999180;28;20774;-66
2023/10/11 06:39:33;;;;;;;4.07;3.67;;;22.80;58.30;;;;;;5017330;28;20489;-65
2023/10/11 06:41:53;;;;;;;5.23;3.13;;;22.80;58.30;;;;;;5017105;28;20419;-65
2023/10/11 06:44:19;;;;;;;6.53;4.43;;;22.80;58.30;;;;;;5016828;28;20423;-64
2023/10/11 06:46:47;;;;;;;3.90;3.50;;;22.80;58.30;;;;;;5017048;28;20160;-64
2023/10/11 06:49:14;;;;;;;5.10;3.87;;;22.80;58.90;;;;;;5016756;28;20251;-65
2023/10/11 06:51:41;;;;;;;5.60;3.70;;;22.80;58.90;;;;;;5017075;28;20764;-66
2023/10/11 06:54:08;;;;;;;4.40;3.70;;;22.80;58.30;;;;;;5016310;28;20443;-65
2023/10/11 06:56:35;;;;;;;4.57;3.60;;;22.80;58.30;;;;;;5016742;28;21232;-66
2023/10/11 06:59:00;;;;;;;5.13;3.97;;;22.80;58.30;;;;;;5016342;28;20502;-66
2023/10/11 07:01:30;;;;;;;5.00;3.63;;;22.80;58.90;;;;;;4999299;28;20494;-67
2023/10/11 07:03:57;;;;;;;5.30;4.00;;;22.80;58.30;;;;;;5016501;28;20184;-67
2023/10/11 07:06:22;;;;;;;6.43;3.80;;;22.80;58.30;;;;;;5016358;28;20411;-66
2023/10/11 07:08:53;;;;;;;6.10;4.53;;;22.80;58.40;;;;;;5016487;28;20410;-67
2023/10/11 07:11:40;;;;;;;6.10;4.17;;;22.80;58.30;;;;;;5016366;28;20157;-67
2023/10/11 07:14:14;;;;;;;4.90;3.80;;;22.80;58.30;;;;;;5016293;28;20453;-64
2023/10/11 07:16:46;;;;;;;4.40;3.37;;;22.80;58.40;;;;;;5016263;28;20498;-66
2023/10/11 07:19:15;;;;;;;5.80;3.93;;;22.80;58.30;;;;;;5016451;28;20951;-66
2023/10/11 07:21:48;;;;;;;6.23;3.87;;;22.80;58.30;;;;;;5016698;28;20407;-65
2023/10/11 07:24:33;;;;;;;5.90;4.20;;;22.80;58.30;;;;;;5015710;28;20514;-64
2023/10/11 07:27:09;;;;;;;4.83;3.70;;;22.80;58.30;;;;;;5016020;28;20402;-66
2023/10/11 07:29:45;;;;;;;7.60;3.97;;;22.80;58.30;;;;;;5015624;28;20402;-64
2023/10/11 07:32:11;;;;;;;5.57;3.40;;;22.80;58.30;;;;;;5016002;28;20423;-65
2023/10/11 07:34:39;;;;;;;5.57;3.73;;;22.80;58.30;;;;;;5015625;28;20529;-67
2023/10/11 07:37:05;;;;;;;6.37;4.10;;;22.80;58.30;;;;;;5015739;28;20543;-65
2023/10/11 07:39:34;;;;;;;6.00;3.43;;;22.80;58.30;;;;;;5015749;28;20963;-67
2023/10/11 07:42:08;;;;;;;8.83;4.27;;;22.80;58.30;;;;;;5015298;28;20920;-67
2023/10/11 07:44:38;;;;;;;5.13;4.20;;;22.80;58.30;;;;;;5015874;28;20859;-66
2023/10/11 07:47:06;;;;;;;5.67;4.37;;;22.80;58.30;;;;;;5015379;28;20427;-67
2023/10/11 07:49:38;;;;;;;5.13;4.13;;;22.80;58.30;;;;;;5015707;28;20426;-66
2023/10/11 07:52:08;;;;;;;7.40;4.47;;;22.90;58.40;;;;;;5015672;28;20419;-67
2023/10/11 07:54:35;;;;;;;5.80;4.10;;;22.80;58.30;;;;;;5015377;28;21287;-65
2023/10/11 07:57:02;;;;;;;6.07;4.53;;;22.80;58.30;;;;;;5015812;28;20795;-65
2023/10/11 07:59:28;;;;;;;8.80;4.90;;;22.90;58.40;;;;;;5015443;28;21045;-66
2023/10/11 08:01:59;;;;;;;5.83;4.10;;;22.90;58.40;;;;;;4998195;28;20417;-66
2023/10/11 08:04:28;;;;;;;5.70;4.50;;;22.90;58.40;;;;;;5013582;28;20572;-66
2023/10/11 08:07:03;;;;;;;6.17;3.70;;;22.90;58.40;;;;;;5015331;28;20404;-66
2023/10/11 08:09:45;;;;;;;5.33;3.37;;;22.90;58.40;;;;;;5016633;28;20900;-66
2023/10/11 08:12:14;;;;;;;6.93;4.33;;;22.90;58.40;;;;;;5016466;28;20483;-65
2023/10/11 08:14:46;;;;;;;7.50;4.37;;;22.90;58.40;;;;;;5014729;28;20442;-64
2023/10/11 08:17:16;;;;;;;6.57;4.23;;;22.90;58.40;;;;;;5016209;28;20518;-64
2023/10/11 08:19:45;;;;;;;7.17;4.37;;;22.90;58.40;;;;;;5016030;28;20459;-65
2023/10/11 08:22:14;;;;;;;9.30;5.23;;;22.90;58.40;;;;;;5016005;28;20923;-67
2023/10/11 08:24:48;;;;;;;5.23;3.67;;;22.90;58.90;;;;;;5016005;28;20427;-66
2023/10/11 08:27:22;;;;;;;7.03;4.27;;;22.90;58.30;;;;;;5016232;28;20395;-67
2023/10/11 08:29:53;;;;;;;6.47;4.97;;;22.90;58.30;;;;;;5016472;28;20398;-66
2023/10/11 08:32:18;;;;;;;5.63;4.00;;;22.90;58.30;;;;;;5016476;28;20404;-66
2023/10/11 08:34:46;;;;;;;6.23;4.43;;;22.90;58.80;;;;;;5016570;28;20510;-65
2023/10/11 08:37:12;;;;;;;4.83;3.83;;;23.00;58.40;;;;;;5016123;28;20157;-67
2023/10/11 08:39:44;;;;;;;6.03;3.40;;;22.90;58.30;;;;;;5016097;28;20851;-65
2023/10/11 08:42:16;;;;;;;6.87;3.63;;;23.00;58.30;;;;;;5015586;28;20399;-65
2023/10/11 08:44:46;;;;;;;5.27;3.90;;;23.00;58.30;;;;;;5015225;28;20447;-65
2023/10/11 08:47:19;;;;;;;9.90;4.03;;;23.00;58.30;;;;;;5015533;28;20498;-66
2023/10/11 08:49:48;;;;;;;4.40;3.93;;;23.00;58.30;;;;;;5015522;28;20400;-66
2023/10/11 08:52:24;;;;;;;5.50;4.20;;;23.00;58.40;;;;;;5015176;28;20411;-64
2023/10/11 08:54:50;;;;;;;5.67;4.00;;;23.00;58.30;;;;;;5015096;28;20966;-66
2023/10/11 08:57:23;;;;;;;5.07;3.97;;;23.00;58.50;;;;;;4997432;28;20431;-65
2023/10/11 08:59:58;;;;;;;6.23;4.27;;;23.00;58.30;;;;;;5014084;28;20506;-65
2023/10/11 09:02:26;;;;;;;5.60;3.83;;;23.00;58.30;;;;;;5015205;28;20414;-65
2023/10/11 09:07:51;;;;;;;4.50;3.60;;;23.00;58.30;;;;;;5015260;28;20390;-63
2023/10/11 09:10:28;;;;;;;5.97;3.67;;;23.00;58.30;;;;;;5015113;28;20417;-65
2023/10/11 09:12:56;;;;;;;5.77;4.30;;;23.00;58.30;;;;;;5015210;28;20439;-65
2023/10/11 09:15:43;;;;;;;4.50;3.23;;;23.00;58.30;;;;;;5015416;28;20458;-65
2023/10/11 09:18:13;;;;;;;6.00;3.67;;;23.00;58.30;;;;;;5014487;28;20431;-65
2023/10/11 09:20:42;;;;;;;4.40;3.30;;;23.00;58.30;;;;;;5014937;28;20828;-65
2023/10/11 09:23:11;;;;;;;6.70;3.70;;;23.00;58.30;;;;;;5014659;28;20419;-65
2023/10/11 09:25:57;;;;;;;6.33;3.77;;;23.00;58.40;;;;;;5015378;28;20411;-65
2023/10/11 09:28:24;;;;;;;6.20;4.20;;;23.00;58.30;;;;;;4996928;28;20449;-64
2023/10/11 09:31:21;;;;;;;5.63;3.60;;;23.00;58.30;;;;;;5014669;28;20439;-65
2023/10/11 09:33:51;;;;;;;4.97;3.77;;;23.00;58.30;;;;;;5014747;28;20443;-63
2023/10/11 09:36:20;;;;;;;4.90;3.70;;;23.00;58.90;;;;;;5014573;28;20818;-65
2023/10/11 09:38:55;;;;;;;6.87;4.87;;;23.00;58.30;;;;;;4996868;28;21005;-66
2023/10/11 09:41:24;;;;;;;5.00;3.80;;;23.00;58.30;;;;;;5014666;28;20406;-65
2023/10/11 09:43:54;;;;;;;6.83;3.83;;;23.00;58.30;;;;;;5014740;28;20477;-65
2023/10/11 09:46:24;;;;;;;7.00;3.50;;;23.10;58.40;;;;;;5014423;28;20407;-66
2023/10/11 09:48:50;;;;;;;5.47;3.80;;;23.00;58.30;;;;;;5014654;28;20957;-66
2023/10/11 09:51:17;;;;;;;6.27;4.40;;;23.10;58.40;;;;;;5014435;28;20407;-64
2023/10/11 09:53:49;;;;;;;4.57;3.40;;;23.00;58.30;;;;;;5013948;28;20199;-66
2023/10/11 09:56:36;;;;;;;5.37;3.80;;;23.10;58.40;;;;;;5014379;28;20896;-64
2023/10/11 09:59:27;;;;;;;5.80;3.77;;;23.10;58.40;;;;;;5013817;28;20396;-64
2023/10/11 10:02:02;;;;;;;5.23;4.07;;;23.10;58.40;;;;;;5014796;28;20866;-64
2023/10/11 10:04:50;;;;;;;7.20;3.90;;;23.10;58.40;;;;;;5014376;28;20431;-66
2023/10/11 10:07:42;;;;;;;5.13;3.40;;;23.10;58.40;;;;;;5014327;28;20404;-65
2023/10/11 10:10:12;;;;;;;4.40;3.80;;;23.00;58.30;;;;;;5013992;28;20403;-66
2023/10/11 10:12:55;;;;;;;6.23;4.00;;;23.10;58.50;;;;;;5014319;28;20503;-65
2023/10/11 10:15:32;;;;;;;4.50;3.83;;;23.10;58.40;;;;;;5014530;28;20447;-65
2023/10/11 10:18:00;;;;;;;7.53;4.30;;;23.00;58.40;;;;;;5014030;28;20406;-66
2023/10/11 10:20:46;;;;;;;4.10;3.63;;;23.00;58.30;;;;;;5014703;28;20481;-65
2023/10/11 10:23:14;;;;;;;5.30;3.40;;;23.10;58.40;;;;;;5014902;28;20419;-64
2023/10/11 10:25:49;;;;;;;6.00;3.63;;;23.10;58.50;;;;;;5014562;28;20404;-65
2023/10/11 10:28:35;;;;;;;4.87;3.53;;;23.10;58.50;;;;;;5014160;28;20411;-65
2023/10/11 10:31:10;;;;;;;6.60;4.10;;;23.00;58.40;;;;;;5013663;28;20512;-65
2023/10/11 10:33:36;;;;;;;5.93;3.40;;;23.00;58.40;;;;;;5014527;28;20451;-64
2023/10/11 10:36:32;;;;;;;6.67;3.50;;;23.00;58.40;;;;;;5014488;28;20517;-65
2023/10/11 10:39:00;;;;;;;5.20;3.40;;;23.00;58.40;;;;;;4992782;28;20502;-65
2023/10/11 10:41:31;;;;;;;5.03;3.30;;;23.00;58.40;;;;;;5014511;28;20410;-63
2023/10/11 10:44:11;;;;;;;5.23;3.80;;;23.00;58.40;;;;;;5013959;28;20799;-65
2023/10/11 10:46:49;;;;;;;6.33;3.70;;;23.10;58.50;;;;;;5014161;28;20427;-66
2023/10/11 10:49:17;;;;;;;4.33;3.63;;;23.10;58.50;;;;;;5014287;28;20391;-64
2023/10/11 10:51:47;;;;;;;5.83;4.20;;;23.00;58.40;;;;;;5013990;28;20548;-65
2023/10/11 10:54:13;;;;;;;5.57;4.17;;;23.00;58.40;;;;;;5013694;28;20431;-66
2023/10/11 10:56:46;;;;;;;6.07;3.53;;;23.10;58.50;;;;;;5014166;28;20415;-68
2023/10/11 10:59:13;;;;;;;4.50;3.10;;;23.00;58.40;;;;;;5013622;28;20405;-67
2023/10/11 11:01:44;;;;;;;5.50;3.73;;;23.00;58.40;;;;;;5013488;28;20415;-63
2023/10/11 11:04:11;;;;;;;6.13;4.10;;;23.00;58.40;;;;;;5013760;28;20434;-64
2023/10/11 11:06:50;;;;;;;4.83;3.60;;;23.10;58.50;;;;;;5013634;28;20908;-65
2023/10/11 11:09:25;;;;;;;7.80;4.40;;;23.00;58.30;;;;;;5013826;28;20465;-65
2023/10/11 11:11:58;;;;;;;12.20;5.90;;;23.00;58.40;;;;;;5014089;28;20434;-65
2023/10/11 11:14:25;;;;;;;14.80;6.67;;;23.00;58.40;;;;;;5013237;28;20462;-65
2023/10/11 11:16:59;;;;;;;21.80;7.87;;;23.10;58.50;;;;;;5012944;28;20457;-63
2023/10/11 11:19:34;;;;;;;23.90;9.80;;;23.00;58.40;;;;;;5013694;28;20458;-66
2023/10/11 11:22:19;;;;;;;28.23;9.80;;;23.00;58.40;;;;;;5014689;28;20391;-62
2023/10/11 11:24:45;;;;;;;35.23;10.90;;;23.10;58.50;;;;;;5017219;28;20803;-65
2023/10/11 11:27:30;;;;;;;35.80;12.27;;;23.00;58.40;;;;;;5017095;28;20498;-65
2023/10/11 11:30:04;;;;;;;31.00;12.80;;;23.10;58.50;;;;;;5016656;28;20399;-65
2023/10/11 11:32:38;;;;;;;30.83;13.40;;;23.00;58.40;;;;;;5017208;28;20461;-64
2023/10/11 11:35:25;;;;;;;24.77;12.63;;;23.10;58.50;;;;;;5016942;28;20479;-64
2023/10/11 11:38:05;;;;;;;33.93;13.20;;;23.10;58.50;;;;;;5016445;28;20975;-62
2023/10/11 11:40:36;;;;;;;23.57;10.37;;;23.00;58.40;;;;;;5017200;28;20473;-64
2023/10/11 11:43:03;;;;;;;33.83;13.53;;;23.00;58.40;;;;;;5016439;28;20416;-62
2023/10/11 11:45:35;;;;;;;35.00;14.67;;;23.00;58.40;;;;;;5016606;28;20458;-63
2023/10/11 11:48:05;;;;;;;29.23;12.73;;;23.00;58.40;;;;;;5017094;28;20398;-64
2023/10/11 11:50:33;;;;;;;36.93;13.30;;;23.00;58.40;;;;;;5016971;28;20851;-65
2023/10/11 11:53:03;;;;;;;32.00;13.90;;;23.00;58.40;;;;;;5016831;28;20486;-65
2023/10/11 11:55:29;;;;;;;24.03;13.50;;;23.10;58.50;;;;;;5016805;28;20959;-65
2023/10/11 11:57:55;;;;;;;35.03;13.77;;;23.00;58.40;;;;;;5016377;28;20422;-65
2023/10/11 12:02:54;;;;;;;31.30;13.47;;;23.00;58.40;;;;;;5016422;28;20506;-66
2023/10/11 12:05:21;;;;;;;27.63;13.20;;;23.00;58.40;;;;;;4999127;28;20990;-65
2023/10/11 12:07:49;;;;;;;30.00;11.97;;;23.10;59.00;;;;;;5016194;28;20408;-65
2023/10/11 12:10:24;;;;;;;21.03;11.30;;;23.00;58.40;;;;;;5016529;28;20423;-65
2023/10/11 12:12:53;;;;;;;23.73;12.90;;;23.00;58.40;;;;;;5016445;28;20379;-62
2023/10/11 12:15:20;;;;;;;32.00;12.37;;;23.10;58.50;;;;;;5016158;28;20534;-64
2023/10/11 12:17:47;;;;;;;24.23;11.07;;;23.00;58.40;;;;;;5016043;28;20486;-65
2023/10/11 12:20:14;;;;;;;24.80;10.47;;;23.00;58.40;;;;;;5016256;28;20451;-64
2023/10/11 12:22:43;;;;;;;24.43;11.47;;;23.00;58.40;;;;;;5016188;28;21114;-62
2023/10/11 12:25:10;;;;;;;22.00;10.80;;;23.00;58.40;;;;;;5015995;28;20427;-64
2023/10/11 12:27:40;;;;;;;21.83;11.27;;;23.00;58.40;;;;;;5016423;28;20411;-65
2023/10/11 12:30:19;;;;;;;24.20;10.30;;;23.00;58.40;;;;;;5015772;28;20501;-64
2023/10/11 12:32:48;;;;;;;25.07;10.67;;;23.00;58.40;;;;;;5015304;28;20400;-64
2023/10/11 12:35:14;;;;;;;18.43;8.93;;;23.00;58.50;;;;;;5015532;28;20517;-62
2023/10/11 12:37:43;;;;;;;19.60;9.37;;;23.00;58.50;;;;;;5015650;28;20428;-64
2023/10/11 12:40:14;;;;;;;19.03;10.07;;;23.00;58.40;;;;;;5015755;28;20755;-63
2023/10/11 12:42:46;;;;;;;18.37;9.00;;;23.00;58.40;;;;;;5015652;28;20814;-64
2023/10/11 12:45:16;;;;;;;17.13;8.70;;;23.00;58.40;;;;;;5015710;28;21064;-65
2023/10/11 12:47:42;;;;;;;24.07;8.60;;;23.00;58.50;;;;;;5015544;28;20407;-65
2023/10/11 12:50:08;;;;;;;17.77;8.43;;;23.00;58.40;;;;;;5016285;28;20407;-63
2023/10/11 12:52:37;;;;;;;16.47;8.57;;;23.00;58.40;;;;;;5015918;28;20181;-64
2023/10/11 12:55:06;;;;;;;14.40;8.23;;;23.00;58.40;;;;;;5016804;28;20208;-65
2023/10/11 12:57:32;;;;;;;16.83;8.40;;;23.00;58.40;;;;;;5016016;28;20419;-65
2023/10/11 12:59:58;;;;;;;15.50;8.47;;;23.00;58.40;;;;;;5015711;28;20455;-65
2023/10/11 13:02:30;;;;;;;12.50;7.57;;;23.00;58.40;;;;;;5015991;28;20676;-64
2023/10/11 13:04:59;;;;;;;11.20;6.10;;;23.00;58.40;;;;;;5015633;28;20838;-64
2023/10/11 13:07:26;;;;;;;15.00;7.30;;;23.00;58.30;;;;;;5015368;28;20403;-64
2023/10/11 13:09:54;;;;;;;11.60;7.07;;;23.00;58.30;;;;;;5015805;28;20419;-65
2023/10/11 13:12:20;;;;;;;15.23;6.87;;;23.00;58.30;;;;;;5015529;28;20469;-63
2023/10/11 13:14:45;;;;;;;14.77;7.13;;;23.00;58.30;;;;;;5015911;28;20435;-66
2023/10/11 13:17:15;;;;;;;13.73;6.77;;;23.00;58.30;;;;;;5015866;28;20974;-64
2023/10/11 13:19:43;;;;;;;11.13;6.27;;;23.00;58.30;;;;;;5015538;28;20683;-64
2023/10/11 13:22:12;;;;;;;10.50;5.70;;;23.00;58.30;;;;;;5015187;28;20407;-65
2023/10/11 13:24:38;;;;;;;10.33;6.20;;;23.00;58.30;;;;;;5013438;28;20526;-66
2023/10/11 13:27:07;;;;;;;12.87;6.53;;;23.00;58.30;;;;;;5011661;28;20411;-65
2023/10/11 13:29:32;;;;;;;10.50;5.50;;;23.00;58.30;;;;;;5011577;28;20798;-65
2023/10/11 13:31:58;;;;;;;12.20;6.33;;;23.00;58.30;;;;;;5011660;28;20506;-65
2023/10/11 13:34:34;;;;;;;13.07;7.43;;;23.00;58.30;;;;;;5011398;28;20223;-65
2023/10/11 13:37:00;;;;;;;11.23;5.83;;;23.00;58.30;;;;;;5011259;28;20161;-65